Time,TemperatureF,DewpointF,PressureIn,WindDirection,WindDirectionDegrees,WindSpeedMPH,WindSpeedGustMPH,Humidity,HourlyPrecipIn,Conditions,Clouds,dailyrainin,SoftwareType,DateUTC
2013-04-16 00:00:00,54.2,52.5,29.94,NNW,347,1.0,3.0,94,0.00,,BKN055,0.00,VWS V14.00,2013-04-16 04:00:00,
2013-04-16 00:01:00,54.2,52.5,29.94,NNW,347,1.0,3.0,94,0.00,,BKN055,0.00,VWS V14.00,2013-04-16 04:01:00,
2013-04-16 00:10:00,54.2,52.2,29.93,NNW,346,3.0,3.0,93,0.00,,BKN055,0.00,VWS V14.00,2013-04-16 04:10:00,
2013-04-16 00:20:00,54.1,52.1,29.93,NNW,342,0.0,4.0,93,0.00,,BKN055,0.00,VWS V14.00,2013-04-16 04:20:00,
2013-04-16 00:30:00,54.2,52.5,29.93,NNW,342,2.0,3.0,94,0.00,,BKN055,0.00,VWS V14.00,2013-04-16 04:30:00,
2013-04-16 00:40:00,53.8,51.8,29.93,NNW,342,3.0,3.0,93,0.00,,BKN055,0.00,VWS V14.00,2013-04-16 04:40:00,
2013-04-16 00:50:00,53.4,51.7,29.93,NNW,342,2.0,3.0,94,0.00,,BKN055,0.00,VWS V14.00,2013-04-16 04:50:00,
2013-04-16 01:00:00,53.2,51.5,29.93,NNW,344,2.0,4.0,94,0.00,,BKN055,0.00,VWS V14.00,2013-04-16 05:00:00,
2013-04-16 01:10:00,52.9,51.5,29.93,NNW,344,1.0,4.0,95,0.00,,BKN055,0.00,VWS V14.00,2013-04-16 05:10:00,
2013-04-16 01:20:00,52.9,51.5,29.93,NNW,344,0.0,4.0,95,0.00,,BKN055,0.00,VWS V14.00,2013-04-16 05:20:00,
2013-04-16 01:30:00,53.0,51.6,29.93,NNW,344,0.0,4.0,95,0.00,,BKN055,0.00,VWS V14.00,2013-04-16 05:30:00,
2013-04-16 01:40:00,53.0,51.6,29.92,NNW,343,2.0,5.0,95,0.00,,BKN055,0.00,VWS V14.00,2013-04-16 05:40:00,
2013-04-16 01:50:00,52.6,50.9,29.92,North,355,0.0,5.0,94,0.00,,BKN055,0.00,VWS V14.00,2013-04-16 05:50:00,
2013-04-16 02:00:00,52.2,50.8,29.92,North,355,0.0,0.0,95,0.00,,BKN055,0.00,VWS V14.00,2013-04-16 06:00:00,
2013-04-16 02:10:00,52.1,50.7,29.92,North,355,0.0,0.0,95,0.00,,BKN055,0.00,VWS V14.00,2013-04-16 06:10:00,
2013-04-16 02:20:00,51.7,50.3,29.92,North,355,0.0,0.0,95,0.00,,BKN055,0.00,VWS V14.00,2013-04-16 06:20:00,
2013-04-16 02:30:00,51.5,50.4,29.92,North,355,0.0,3.0,96,0.00,,BKN055,0.00,VWS V14.00,2013-04-16 06:30:00,
2013-04-16 02:40:00,51.4,50.3,29.92,North,355,1.0,3.0,96,0.00,,BKN055,0.00,VWS V14.00,2013-04-16 06:40:00,
2013-04-16 02:50:00,51.3,50.2,29.92,North,355,0.0,3.0,96,0.00,,BKN055,0.00,VWS V14.00,2013-04-16 06:50:00,
2013-04-16 03:00:00,51.2,50.1,29.92,North,355,0.0,0.0,96,0.00,,BKN055,0.00,VWS V14.00,2013-04-16 07:00:00,
2013-04-16 03:10:00,51.0,49.9,29.92,North,355,2.0,3.0,96,0.00,,BKN055,0.00,VWS V14.00,2013-04-16 07:10:00,
2013-04-16 03:20:00,50.9,50.1,29.93,North,355,0.0,3.0,97,0.00,,BKN055,0.00,VWS V14.00,2013-04-16 07:20:00,
2013-04-16 03:30:00,50.8,50.0,29.93,North,355,0.0,0.0,97,0.00,,BKN055,0.00,VWS V14.00,2013-04-16 07:30:00,
2013-04-16 03:40:00,50.8,50.0,29.94,North,355,0.0,0.0,97,0.00,,BKN055,0.00,VWS V14.00,2013-04-16 07:40:00,
2013-04-16 03:50:00,50.9,50.1,29.94,North,355,0.0,0.0,97,0.00,,BKN055,0.00,VWS V14.00,2013-04-16 07:50:00,
2013-04-16 04:00:00,50.8,50.0,29.95,North,355,0.0,0.0,97,0.00,,BKN055,0.00,VWS V14.00,2013-04-16 08:00:00,
2013-04-16 04:10:00,50.1,49.3,29.95,North,355,0.0,0.0,97,0.00,,BKN055,0.00,VWS V14.00,2013-04-16 08:10:00,
2013-04-16 04:20:00,50.0,49.2,29.95,North,355,0.0,0.0,97,0.00,,BKN055,0.00,VWS V14.00,2013-04-16 08:20:00,
2013-04-16 04:30:00,50.0,49.2,29.95,North,355,0.0,0.0,97,0.00,,BKN055,0.00,VWS V14.00,2013-04-16 08:30:00,
2013-04-16 04:40:00,50.1,49.3,29.95,North,355,0.0,0.0,97,0.00,,BKN055,0.00,VWS V14.00,2013-04-16 08:40:00,
2013-04-16 04:50:00,49.6,48.8,29.95,North,355,2.0,2.0,97,0.00,,BKN055,0.00,VWS V14.00,2013-04-16 08:50:00,
2013-04-16 05:00:00,49.1,48.3,29.96,North,355,0.0,2.0,97,0.00,,BKN055,0.00,VWS V14.00,2013-04-16 09:00:00,
2013-04-16 05:10:00,48.9,48.1,29.97,North,355,0.0,0.0,97,0.00,,BKN055,0.00,VWS V14.00,2013-04-16 09:10:00,
2013-04-16 05:20:00,49.0,48.2,29.97,North,355,0.0,0.0,97,0.00,,BKN055,0.00,VWS V14.00,2013-04-16 09:20:00,
2013-04-16 05:30:00,48.9,48.1,29.97,North,355,0.0,2.0,97,0.00,,BKN055,0.00,VWS V14.00,2013-04-16 09:30:00,
2013-04-16 05:40:00,48.8,48.0,29.97,North,355,0.0,0.0,97,0.00,,BKN055,0.00,VWS V14.00,2013-04-16 09:40:00,
2013-04-16 05:50:00,48.7,47.9,29.98,North,355,0.0,1.0,97,0.00,,BKN055,0.00,VWS V14.00,2013-04-16 09:50:00,
2013-04-16 06:00:00,48.7,48.2,29.98,North,355,0.0,1.0,98,0.00,,BKN055,0.00,VWS V14.00,2013-04-16 10:00:00,
2013-04-16 06:10:00,48.8,48.3,29.98,North,355,0.0,1.0,98,0.00,,BKN055,0.00,VWS V14.00,2013-04-16 10:10:00,
2013-04-16 06:20:00,48.7,48.2,29.99,North,355,0.0,0.0,98,0.00,,BKN055,0.00,VWS V14.00,2013-04-16 10:20:00,
2013-04-16 06:30:00,48.8,48.3,29.99,North,355,0.0,0.0,98,0.00,,BKN055,0.00,VWS V14.00,2013-04-16 10:30:00,
2013-04-16 06:40:00,48.9,48.4,30.00,North,355,0.0,1.0,98,0.00,,BKN055,0.00,VWS V14.00,2013-04-16 10:40:00,
2013-04-16 06:50:00,49.5,49.0,30.00,North,355,0.0,2.0,98,0.00,,BKN055,0.00,VWS V14.00,2013-04-16 10:50:00,
2013-04-16 07:00:00,51.3,51.0,30.00,North,355,0.0,0.0,99,0.00,,BKN055,0.00,VWS V14.00,2013-04-16 11:00:00,
2013-04-16 07:10:00,53.0,52.7,30.01,North,355,0.0,0.0,99,0.00,,BKN055,0.00,VWS V14.00,2013-04-16 11:10:00,
2013-04-16 07:20:00,54.9,54.9,30.02,SE,138,0.0,2.0,100,0.00,,BKN055,0.00,VWS V14.00,2013-04-16 11:20:00,
2013-04-16 07:30:00,56.3,56.3,30.02,WSW,250,0.0,5.0,100,0.00,,BKN055,0.00,VWS V14.00,2013-04-16 11:30:00,
2013-04-16 07:40:00,57.6,57.6,30.03,SSW,207,0.0,5.0,100,0.00,,BKN055,0.00,VWS V14.00,2013-04-16 11:40:00,
2013-04-16 07:50:00,58.0,57.7,30.03,SSE,159,0.0,4.0,99,0.00,,BKN055,0.00,VWS V14.00,2013-04-16 11:50:00,
2013-04-16 08:00:00,58.5,58.2,30.03,WSW,254,0.0,5.0,99,0.00,,BKN055,0.00,VWS V14.00,2013-04-16 12:00:00,
2013-04-16 08:10:00,59.0,58.4,30.04,WSW,242,0.0,5.0,98,0.00,,BKN055,0.00,VWS V14.00,2013-04-16 12:10:00,
2013-04-16 08:20:00,60.3,58.9,30.05,South,186,0.0,6.0,95,0.00,,BKN055,0.00,VWS V14.00,2013-04-16 12:20:00,
2013-04-16 08:30:00,60.6,58.9,30.05,South,188,0.0,1.0,94,0.00,,BKN055,0.00,VWS V14.00,2013-04-16 12:30:00,
2013-04-16 08:40:00,61.5,59.5,30.06,SSW,202,0.0,4.0,93,0.00,,BKN055,0.00,VWS V14.00,2013-04-16 12:40:00,
2013-04-16 08:50:00,62.4,60.0,30.05,ESE,117,0.0,3.0,92,0.00,,BKN055,0.00,VWS V14.00,2013-04-16 12:50:00,
2013-04-16 09:00:00,63.7,61.0,30.06,SSW,197,0.0,6.0,91,0.00,,BKN055,0.00,VWS V14.00,2013-04-16 13:00:00,
2013-04-16 09:10:00,64.9,61.6,30.06,WSW,250,0.0,6.0,89,0.00,,BKN055,0.00,VWS V14.00,2013-04-16 13:10:00,
2013-04-16 09:20:00,66.2,62.2,30.07,SW,224,1.0,7.0,87,0.00,,BKN055,0.00,VWS V14.00,2013-04-16 13:20:00,
2013-04-16 09:30:00,67.0,62.0,30.08,SSW,211,1.0,11.0,84,0.00,,BKN055,0.00,VWS V14.00,2013-04-16 13:30:00,
2013-04-16 09:40:00,66.4,61.1,30.07,SW,230,0.0,6.0,83,0.00,,BKN055,0.00,VWS V14.00,2013-04-16 13:40:00,
2013-04-16 09:50:00,66.7,63.0,30.06,SSW,206,0.0,2.0,88,0.00,,BKN055,0.00,VWS V14.00,2013-04-16 13:50:00,
2013-04-16 10:00:00,67.9,62.9,30.07,WSW,244,3.0,9.0,84,0.00,,BKN055,0.00,VWS V14.00,2013-04-16 14:00:00,
2013-04-16 10:10:00,68.4,63.0,30.07,SW,236,0.0,9.0,83,0.00,,BKN055,0.00,VWS V14.00,2013-04-16 14:10:00,
2013-04-16 10:20:00,67.9,62.2,30.07,SW,215,0.0,9.0,82,0.00,,BKN055,0.00,VWS V14.00,2013-04-16 14:20:00,
2013-04-16 10:30:00,67.3,62.3,30.08,South,188,3.0,5.0,84,0.00,,BKN055,0.00,VWS V14.00,2013-04-16 14:30:00,
2013-04-16 10:40:00,67.9,62.9,30.08,WSW,249,1.0,6.0,84,0.00,,BKN055,0.00,VWS V14.00,2013-04-16 14:40:00,
2013-04-16 10:50:00,68.4,63.4,30.08,SSW,200,2.0,4.0,84,0.00,,BKN055,0.00,VWS V14.00,2013-04-16 14:50:00,
2013-04-16 11:00:00,68.3,63.6,30.07,SSW,209,0.0,2.0,85,0.00,,BKN055,0.00,VWS V14.00,2013-04-16 15:00:00,
2013-04-16 11:10:00,69.4,64.0,30.07,SW,225,0.0,1.0,83,0.00,,BKN055,0.00,VWS V14.00,2013-04-16 15:10:00,
2013-04-16 11:20:00,71.2,65.4,30.07,South,191,2.0,4.0,82,0.00,,BKN055,0.00,VWS V14.00,2013-04-16 15:20:00,
2013-04-16 11:30:00,72.4,65.5,30.07,WSW,242,2.0,8.0,79,0.00,,BKN055,0.00,VWS V14.00,2013-04-16 15:30:00,
2013-04-16 11:40:00,72.0,65.1,30.07,SW,214,0.0,6.0,79,0.00,,BKN055,0.00,VWS V14.00,2013-04-16 15:40:00,
2013-04-16 11:50:00,72.1,65.2,30.07,WSW,248,1.0,6.0,79,0.00,,BKN055,0.00,VWS V14.00,2013-04-16 15:50:00,
2013-04-16 12:00:00,71.7,65.2,30.06,SSW,195,0.0,7.0,80,0.00,,BKN055,0.00,VWS V14.00,2013-04-16 16:00:00,
2013-04-16 12:10:00,71.8,66.0,30.06,SW,233,2.0,13.0,82,0.00,,BKN055,0.00,VWS V14.00,2013-04-16 16:10:00,
2013-04-16 12:20:00,73.2,67.0,30.06,SSW,195,0.0,9.0,81,0.00,,BKN055,0.00,VWS V14.00,2013-04-16 16:20:00,
2013-04-16 12:30:00,73.9,67.0,30.06,WSW,237,0.0,9.0,79,0.00,,BKN055,0.00,VWS V14.00,2013-04-16 16:30:00,
2013-04-16 12:40:00,74.4,66.3,30.06,South,181,0.0,9.0,76,0.00,,BKN055,0.00,VWS V14.00,2013-04-16 16:40:00,
2013-04-16 12:50:00,73.7,66.1,30.06,SSW,202,0.0,7.0,77,0.00,,BKN055,0.00,VWS V14.00,2013-04-16 16:50:00,
2013-04-16 13:00:00,73.1,66.2,30.06,SSW,208,0.0,4.0,79,0.00,,BKN055,0.00,VWS V14.00,2013-04-16 17:00:00,
2013-04-16 13:10:00,73.7,66.4,30.05,SW,218,0.0,5.0,78,0.00,,BKN055,0.00,VWS V14.00,2013-04-16 17:10:00,
2013-04-16 13:20:00,73.6,66.7,30.05,WSW,239,0.0,6.0,79,0.00,,BKN055,0.00,VWS V14.00,2013-04-16 17:20:00,
2013-04-16 13:30:00,73.7,66.1,30.05,SW,226,0.0,7.0,77,0.00,,BKN055,0.00,VWS V14.00,2013-04-16 17:30:00,
2013-04-16 13:40:00,73.8,66.5,30.04,SSW,213,0.0,3.0,78,0.00,,BKN055,0.00,VWS V14.00,2013-04-16 17:40:00,
2013-04-16 13:50:00,74.5,66.8,30.04,SW,223,0.0,5.0,77,0.00,,BKN055,0.00,VWS V14.00,2013-04-16 17:50:00,
2013-04-16 14:00:00,75.3,67.2,30.03,South,172,0.0,2.0,76,0.00,,BKN055,0.00,VWS V14.00,2013-04-16 18:00:00,
2013-04-16 14:10:00,76.0,68.3,30.02,SSW,196,0.0,5.0,77,0.00,,BKN055,0.00,VWS V14.00,2013-04-16 18:10:00,
2013-04-16 14:20:00,76.6,68.5,30.02,South,175,1.0,3.0,76,0.00,,BKN055,0.00,VWS V14.00,2013-04-16 18:20:00,
2013-04-16 14:30:00,77.0,67.7,30.02,SW,233,0.0,6.0,73,0.00,,BKN055,0.00,VWS V14.00,2013-04-16 18:30:00,
2013-04-16 14:40:00,77.1,68.2,30.02,SW,226,0.0,7.0,74,0.00,,BKN055,0.00,VWS V14.00,2013-04-16 18:40:00,
2013-04-16 14:50:00,78.1,67.5,30.02,SW,228,0.0,7.0,70,0.00,,BKN055,0.00,VWS V14.00,2013-04-16 18:50:00,
2013-04-16 15:00:00,78.5,68.7,30.02,South,186,1.0,12.0,72,0.00,,BKN055,0.00,VWS V14.00,2013-04-16 19:00:00,
2013-04-16 15:10:00,77.8,66.8,30.01,SSW,195,0.0,6.0,69,0.00,,BKN055,0.00,VWS V14.00,2013-04-16 19:10:00,
2013-04-16 15:20:00,77.2,69.1,30.01,South,173,0.0,10.0,76,0.00,,BKN055,0.00,VWS V14.00,2013-04-16 19:20:00,
2013-04-16 15:30:00,76.7,67.4,30.01,SW,222,3.0,8.0,73,0.00,,BKN055,0.00,VWS V14.00,2013-04-16 19:30:00,
2013-04-16 15:40:00,76.7,67.8,30.01,SSW,205,0.0,6.0,74,0.00,,BKN055,0.00,VWS V14.00,2013-04-16 19:40:00,
2013-04-16 15:50:00,76.6,68.9,30.01,SW,229,6.0,13.0,77,0.00,,BKN055,0.00,VWS V14.00,2013-04-16 19:50:00,
2013-04-16 16:00:00,76.7,67.0,30.01,West,263,4.0,9.0,72,0.00,,BKN055,0.00,VWS V14.00,2013-04-16 20:00:00,
2013-04-16 16:10:00,76.8,67.5,30.01,SSW,193,0.0,6.0,73,0.00,,BKN055,0.00,VWS V14.00,2013-04-16 20:10:00,
2013-04-16 16:20:00,77.1,68.2,30.01,SW,215,0.0,9.0,74,0.00,,BKN055,0.00,VWS V14.00,2013-04-16 20:20:00,
2013-04-16 16:30:00,76.6,66.9,30.01,South,182,0.0,8.0,72,0.00,,BKN055,0.00,VWS V14.00,2013-04-16 20:30:00,
2013-04-16 16:40:00,75.8,66.5,30.01,SSW,205,0.0,9.0,73,0.00,,BKN055,0.00,VWS V14.00,2013-04-16 20:40:00,
2013-04-16 16:50:00,76.2,68.1,30.01,South,169,0.0,8.0,76,0.00,,BKN055,0.00,VWS V14.00,2013-04-16 20:50:00,
2013-04-16 17:00:00,77.6,68.7,30.00,SW,227,0.0,10.0,74,0.00,,BKN055,0.00,VWS V14.00,2013-04-16 21:00:00,
2013-04-16 17:10:00,77.6,68.3,30.01,SW,216,0.0,9.0,73,0.00,,BKN055,0.00,VWS V14.00,2013-04-16 21:10:00,
2013-04-16 17:20:00,77.8,68.1,30.01,South,190,1.0,11.0,72,0.00,,BKN055,0.00,VWS V14.00,2013-04-16 21:20:00,
2013-04-16 17:30:00,78.6,68.8,30.01,West,264,10.0,13.0,72,0.00,,BKN055,0.00,VWS V14.00,2013-04-16 21:30:00,
2013-04-16 17:40:00,79.1,68.5,30.01,West,272,3.0,12.0,70,0.00,,BKN055,0.00,VWS V14.00,2013-04-16 21:40:00,
2013-04-16 17:50:00,79.1,68.1,30.02,WNW,301,4.0,12.0,69,0.00,,BKN055,0.00,VWS V14.00,2013-04-16 21:50:00,
2013-04-16 18:00:00,78.0,67.4,30.04,NW,311,23.0,26.0,70,0.00,,BKN055,0.00,VWS V14.00,2013-04-16 22:00:00,
2013-04-16 18:10:00,68.6,61.1,30.05,NNW,340,15.0,26.0,77,0.00,,BKN055,0.00,VWS V14.00,2013-04-16 22:10:00,
2013-04-16 18:20:00,66.8,61.1,30.06,NNE,29,10.0,22.0,82,0.00,,BKN055,0.00,VWS V14.00,2013-04-16 22:20:00,
2013-04-16 18:30:00,66.5,61.2,30.06,NNW,337,6.0,18.0,83,0.00,,BKN055,0.00,VWS V14.00,2013-04-16 22:30:00,
2013-04-16 18:40:00,65.6,61.3,30.04,North,355,3.0,17.0,86,0.01,,BKN055,0.01,VWS V14.00,2013-04-16 22:40:00,
2013-04-16 18:50:00,64.3,60.7,30.05,North,349,6.0,15.0,88,0.01,,BKN055,0.01,VWS V14.00,2013-04-16 22:50:00,
2013-04-16 19:00:00,63.7,60.7,30.07,North,349,9.0,15.0,90,0.03,,BKN055,0.03,VWS V14.00,2013-04-16 23:00:00,
2013-04-16 19:10:00,62.8,60.5,30.09,ENE,60,5.0,14.0,92,0.20,,BKN055,0.20,VWS V14.00,2013-04-16 23:10:00,
2013-04-16 19:20:00,62.1,60.4,30.09,North,5,2.0,5.0,94,0.23,,BKN055,0.23,VWS V14.00,2013-04-16 23:20:00,
2013-04-16 19:30:00,61.9,60.5,30.08,NE,38,2.0,4.0,95,0.23,,BKN055,0.23,VWS V14.00,2013-04-16 23:30:00,
2013-04-16 19:40:00,61.9,60.5,30.08,NNE,15,3.0,4.0,95,0.23,,BKN055,0.23,VWS V14.00,2013-04-16 23:40:00,
2013-04-16 19:50:00,61.8,60.4,30.07,North,360,3.0,5.0,95,0.22,,BKN055,0.23,VWS V14.00,2013-04-16 23:50:00,
2013-04-16 20:00:00,61.7,60.3,30.08,NNE,27,0.0,4.0,95,0.22,,BKN055,0.23,VWS V14.00,2013-04-17 00:00:00,
2013-04-16 20:10:00,61.4,60.0,30.08,East,86,4.0,7.0,95,0.20,,BKN055,0.23,VWS V14.00,2013-04-17 00:10:00,
2013-04-16 20:20:00,61.4,60.0,30.08,NE,44,2.0,6.0,95,0.03,,BKN055,0.23,VWS V14.00,2013-04-17 00:20:00,
2013-04-16 20:30:00,61.4,60.0,30.08,ENE,61,3.0,3.0,95,0.00,,BKN055,0.23,VWS V14.00,2013-04-17 00:30:00,
2013-04-16 20:40:00,61.3,60.2,30.09,ENE,61,0.0,3.0,96,0.00,,BKN055,0.23,VWS V14.00,2013-04-17 00:40:00,
2013-04-16 20:50:00,61.2,60.0,30.09,ENE,60,0.0,0.0,96,0.00,,BKN055,0.23,VWS V14.00,2013-04-17 00:50:00,
2013-04-16 21:00:00,61.1,60.0,30.08,ENE,57,1.0,3.0,96,0.00,,BKN055,0.23,VWS V14.00,2013-04-17 01:00:00,
2013-04-16 21:10:00,61.0,59.9,30.09,ENE,57,2.0,3.0,96,0.00,,BKN055,0.23,VWS V14.00,2013-04-17 01:10:00,
2013-04-16 21:20:00,61.1,60.0,30.10,NNE,17,0.0,4.0,96,0.00,,BKN055,0.23,VWS V14.00,2013-04-17 01:20:00,
2013-04-16 21:30:00,61.1,60.2,30.10,North,360,1.0,4.0,97,0.00,,BKN055,0.23,VWS V14.00,2013-04-17 01:30:00,
2013-04-16 21:40:00,61.0,60.2,30.10,North,360,0.0,1.0,97,0.00,,BKN055,0.23,VWS V14.00,2013-04-17 01:40:00,
2013-04-16 21:50:00,60.9,60.0,30.11,North,360,0.0,0.0,97,0.00,,BKN055,0.23,VWS V14.00,2013-04-17 01:50:00,
2013-04-16 22:00:00,60.9,60.0,30.11,North,355,4.0,4.0,97,0.00,,BKN055,0.23,VWS V14.00,2013-04-17 02:00:00,
2013-04-16 22:01:00,60.9,60.0,30.11,North,355,4.0,4.0,97,0.00,,BKN055,0.23,VWS V14.00,2013-04-17 02:01:00,
2013-04-16 22:10:00,60.9,60.0,30.13,North,360,0.0,4.0,97,0.00,,BKN055,0.23,VWS V14.00,2013-04-17 02:10:00,
2013-04-16 22:20:00,60.8,60.2,30.13,North,360,0.0,0.0,98,0.00,,BKN055,0.23,VWS V14.00,2013-04-17 02:20:00,
2013-04-16 22:30:00,60.7,59.8,30.13,NE,55,0.0,5.0,97,0.00,,BKN055,0.23,VWS V14.00,2013-04-17 02:30:00,
2013-04-16 22:40:00,60.8,60.2,30.13,North,349,5.0,5.0,98,0.01,,BKN055,0.24,VWS V14.00,2013-04-17 02:40:00,
2013-04-16 22:50:00,61.0,60.4,30.14,NNW,341,2.0,6.0,98,0.01,,BKN055,0.24,VWS V14.00,2013-04-17 02:50:00,
2013-04-16 23:00:00,60.9,60.3,30.12,NE,37,1.0,3.0,98,0.01,,BKN055,0.24,VWS V14.00,2013-04-17 03:00:00,
2013-04-16 23:10:00,60.6,59.8,30.10,NE,40,0.0,1.0,97,0.01,,BKN055,0.24,VWS V14.00,2013-04-17 03:10:00,
2013-04-16 23:20:00,60.2,59.3,30.10,NE,40,0.0,0.0,97,0.01,,BKN055,0.24,VWS V14.00,2013-04-17 03:20:00,
2013-04-16 23:30:00,60.2,59.6,30.11,NE,42,0.0,2.0,98,0.01,,BKN055,0.24,VWS V14.00,2013-04-17 03:30:00,
2013-04-16 23:40:00,60.2,59.6,30.10,NE,42,0.0,0.0,98,0.01,,BKN055,0.24,VWS V14.00,2013-04-17 03:40:00,
2013-04-16 23:50:00,60.1,59.5,30.10,NE,42,0.0,0.0,98,0.01,,BKN055,0.25,VWS V14.00,2013-04-17 03:50:00,